sensor_id;sensor_type;location;lat;lon;timestamp;temperature;humidity
49901;DHT22;35789;48.414;12.768;2023-02-10T00:00:00;-4.8;99.9
49901;DHT22;35789;48.414;12.768;2023-02-10T00:05:00;-4.8;99.9
49901;DHT22;35789;48.414;12.768;2023-02-10T00:10:00;-4.8;99.9
49901;DHT22;35789;48.414;12.768;2023-02-10T00:15:00;-4.9;99.9
49901;DHT22;35789;48.414;12.768;2023-02-10T00:20:00;-4.8;99.9
49901;DHT22;35789;48.414;12.768;2023-02-10T00:25:00;-4.8;99.9
49901;DHT22;35789;48.414;12.768;2023-02-10T00:30:00;-4.9;99.9
49901;DHT22;35789;48.414;12.768;2023-02-10T00:35:00;-4.9;99.9
49901;DHT22;35789;48.414;12.768;2023-02-10T00:40:00;-4.9;99.9
49901;DHT22;35789;48.414;12.768;2023-02-10T00:45:00;-5.2;99.9
49901;DHT22;35789;48.414;12.768;2023-02-10T00:50:00;-5.1;99.9
49901;DHT22;35789;48.414;12.768;2023-02-10T00:55:00;-5.0;99.9
49901;DHT22;35789;48.414;12.768;2023-02-10T01:00:00;-5.0;99.9
49901;DHT22;35789;48.414;12.768;2023-02-10T01:05:00;-5.0;99.9
49901;DHT22;35789;48.414;12.768;2023-02-10T01:10:00;-5.0;99.9
49901;DHT22;35789;48.414;12.768;2023-02-10T01:15:00;-5.0;99.9
49901;DHT22;35789;48.414;12.768;2023-02-10T01:20:00;-5.1;99.9
49901;DHT22;35789;48.414;12.768;2023-02-10T01:25:00;-5.1;99.9
49901;DHT22;35789;48.414;12.768;2023-02-10T01:30:00;-5.1;99.9
49901;DHT22;35789;48.414;12.768;2023-02-10T01:35:00;-5.2;99.9
49901;DHT22;35789;48.414;12.768;2023-02-10T01:40:00;-5.2;99.9
49901;DHT22;35789;48.414;12.768;2023-02-10T01:45:10;-5.3;99.9
49901;DHT22;35789;48.414;12.768;2023-02-10T01:50:00;-5.5;99.9
49901;DHT22;35789;48.414;12.768;2023-02-10T01:55:01;-5.4;99.9
49901;DHT22;35789;48.414;12.768;2023-02-10T02:00:01;-5.5;99.9
49901;DHT22;35789;48.414;12.768;2023-02-10T02:05:01;-5.5;99.9
49901;DHT22;35789;48.414;12.768;2023-02-10T02:10:00;-5.7;99.9
49901;DHT22;35789;48.414;12.768;2023-02-10T02:15:02;-5.6;99.9
49901;DHT22;35789;48.414;12.768;2023-02-10T02:20:08;-5.5;99.9
49901;DHT22;35789;48.414;12.768;2023-02-10T02:25:02;-5.6;99.9
49901;DHT22;35789;48.414;12.768;2023-02-10T02:30:09;-5.6;99.9
49901;DHT22;35789;48.414;12.768;2023-02-10T02:35:01;-5.6;99.9
49901;DHT22;35789;48.414;12.768;2023-02-10T02:40:00;-5.7;99.9
49901;DHT22;35789;48.414;12.768;2023-02-10T02:45:00;-5.8;99.9
49901;DHT22;35789;48.414;12.768;2023-02-10T02:50:02;-5.9;99.9
49901;DHT22;35789;48.414;12.768;2023-02-10T02:55:02;-5.9;99.9
49901;DHT22;35789;48.414;12.768;2023-02-10T03:00:03;-5.6;99.9
49901;DHT22;35789;48.414;12.768;2023-02-10T03:05:00;-5.7;99.9
49901;DHT22;35789;48.414;12.768;2023-02-10T03:10:00;-5.9;99.9
49901;DHT22;35789;48.414;12.768;2023-02-10T03:15:00;-6.0;99.9
49901;DHT22;35789;48.414;12.768;2023-02-10T03:20:00;-6.1;99.9
49901;DHT22;35789;48.414;12.768;2023-02-10T03:25:00;-6.0;99.9
49901;DHT22;35789;48.414;12.768;2023-02-10T03:30:00;-6.1;99.9
49901;DHT22;35789;48.414;12.768;2023-02-10T03:35:00;-5.9;99.9
49901;DHT22;35789;48.414;12.768;2023-02-10T03:40:00;-6.1;99.9
49901;DHT22;35789;48.414;12.768;2023-02-10T03:45:00;-6.1;99.9
49901;DHT22;35789;48.414;12.768;2023-02-10T03:50:00;-6.0;99.9
49901;DHT22;35789;48.414;12.768;2023-02-10T03:55:00;-6.0;99.9
49901;DHT22;35789;48.414;12.768;2023-02-10T04:00:00;-6.1;99.9
49901;DHT22;35789;48.414;12.768;2023-02-10T04:05:00;-5.9;99.9
49901;DHT22;35789;48.414;12.768;2023-02-10T04:10:00;-6.1;99.9
49901;DHT22;35789;48.414;12.768;2023-02-10T04:15:00;-6.0;99.9
49901;DHT22;35789;48.414;12.768;2023-02-10T04:20:00;-6.0;99.9
49901;DHT22;35789;48.414;12.768;2023-02-10T04:25:00;-6.1;99.9
49901;DHT22;35789;48.414;12.768;2023-02-10T04:30:00;-6.1;99.9
49901;DHT22;35789;48.414;12.768;2023-02-10T04:35:00;-6.1;99.9
49901;DHT22;35789;48.414;12.768;2023-02-10T04:40:00;-6.2;99.9
49901;DHT22;35789;48.414;12.768;2023-02-10T04:45:00;-6.2;99.9
49901;DHT22;35789;48.414;12.768;2023-02-10T04:50:01;-6.2;99.9
49901;DHT22;35789;48.414;12.768;2023-02-10T04:55:00;-6.4;99.9
49901;DHT22;35789;48.414;12.768;2023-02-10T05:00:00;-6.3;99.9
49901;DHT22;35789;48.414;12.768;2023-02-10T05:05:00;-6.3;99.9
49901;DHT22;35789;48.414;12.768;2023-02-10T05:10:00;-6.4;99.9
49901;DHT22;35789;48.414;12.768;2023-02-10T05:15:00;-6.5;99.9
49901;DHT22;35789;48.414;12.768;2023-02-10T05:20:00;-6.5;99.9
49901;DHT22;35789;48.414;12.768;2023-02-10T05:25:00;-6.6;99.9
49901;DHT22;35789;48.414;12.768;2023-02-10T05:30:00;-6.6;99.9
49901;DHT22;35789;48.414;12.768;2023-02-10T05:35:00;-6.5;99.9
49901;DHT22;35789;48.414;12.768;2023-02-10T05:40:00;-6.7;99.9
49901;DHT22;35789;48.414;12.768;2023-02-10T05:45:00;-6.7;99.9
49901;DHT22;35789;48.414;12.768;2023-02-10T05:50:00;-6.8;99.9
49901;DHT22;35789;48.414;12.768;2023-02-10T05:55:00;-6.9;99.9
49901;DHT22;35789;48.414;12.768;2023-02-10T06:00:00;-7.0;99.9
49901;DHT22;35789;48.414;12.768;2023-02-10T06:05:00;-6.8;99.9
49901;DHT22;35789;48.414;12.768;2023-02-10T06:10:00;-6.8;99.9
49901;DHT22;35789;48.414;12.768;2023-02-10T06:15:00;-6.7;99.9
49901;DHT22;35789;48.414;12.768;2023-02-10T06:20:00;-6.8;99.9
49901;DHT22;35789;48.414;12.768;2023-02-10T06:25:00;-6.8;99.9
49901;DHT22;35789;48.414;12.768;2023-02-10T06:30:00;-6.9;99.9
49901;DHT22;35789;48.414;12.768;2023-02-10T06:35:00;-6.9;99.9
49901;DHT22;35789;48.414;12.768;2023-02-10T06:40:00;-6.9;99.9
49901;DHT22;35789;48.414;12.768;2023-02-10T06:45:01;-6.9;99.9
49901;DHT22;35789;48.414;12.768;2023-02-10T06:50:00;-6.9;99.9
49901;DHT22;35789;48.414;12.768;2023-02-10T06:55:00;-6.8;99.9
49901;DHT22;35789;48.414;12.768;2023-02-10T07:00:00;-6.7;99.9
49901;DHT22;35789;48.414;12.768;2023-02-10T07:05:00;-6.6;99.9
49901;DHT22;35789;48.414;12.768;2023-02-10T07:10:00;-6.5;99.9
49901;DHT22;35789;48.414;12.768;2023-02-10T07:15:00;-6.5;99.9
49901;DHT22;35789;48.414;12.768;2023-02-10T07:20:00;-6.4;99.9
49901;DHT22;35789;48.414;12.768;2023-02-10T07:25:00;-6.5;99.9
49901;DHT22;35789;48.414;12.768;2023-02-10T07:30:03;-6.5;99.9
49901;DHT22;35789;48.414;12.768;2023-02-10T07:35:00;-6.3;99.9
49901;DHT22;35789;48.414;12.768;2023-02-10T07:40:00;-6.1;99.9
49901;DHT22;35789;48.414;12.768;2023-02-10T07:45:00;-6.0;99.9
49901;DHT22;35789;48.414;12.768;2023-02-10T07:50:00;-6.0;99.9
49901;DHT22;35789;48.414;12.768;2023-02-10T07:55:00;-5.8;99.9
49901;DHT22;35789;48.414;12.768;2023-02-10T08:00:00;-5.7;99.9
49901;DHT22;35789;48.414;12.768;2023-02-10T08:05:00;-5.5;99.9
49901;DHT22;35789;48.414;12.768;2023-02-10T08:10:00;-5.4;99.9
49901;DHT22;35789;48.414;12.768;2023-02-10T08:15:00;-5.2;99.9
49901;DHT22;35789;48.414;12.768;2023-02-10T08:20:00;-4.8;99.9
49901;DHT22;35789;48.414;12.768;2023-02-10T08:25:00;-4.5;99.9
49901;DHT22;35789;48.414;12.768;2023-02-10T08:30:00;-4.4;99.9
49901;DHT22;35789;48.414;12.768;2023-02-10T08:35:00;-4.2;99.9
49901;DHT22;35789;48.414;12.768;2023-02-10T08:40:00;-4.0;99.9
49901;DHT22;35789;48.414;12.768;2023-02-10T08:45:00;-3.8;99.9
49901;DHT22;35789;48.414;12.768;2023-02-10T08:50:00;-3.7;99.9
49901;DHT22;35789;48.414;12.768;2023-02-10T08:55:00;-3.5;99.9
49901;DHT22;35789;48.414;12.768;2023-02-10T09:00:00;-3.4;99.9
49901;DHT22;35789;48.414;12.768;2023-02-10T09:05:00;-3.2;99.9
49901;DHT22;35789;48.414;12.768;2023-02-10T09:10:00;-3.0;99.9
49901;DHT22;35789;48.414;12.768;2023-02-10T09:15:00;-2.9;99.9
49901;DHT22;35789;48.414;12.768;2023-02-10T09:20:00;-2.6;99.9
49901;DHT22;35789;48.414;12.768;2023-02-10T09:25:00;-2.4;99.9
49901;DHT22;35789;48.414;12.768;2023-02-10T09:30:00;-2.2;99.9
49901;DHT22;35789;48.414;12.768;2023-02-10T09:35:00;-2.0;99.9
49901;DHT22;35789;48.414;12.768;2023-02-10T09:40:00;-1.9;99.9
49901;DHT22;35789;48.414;12.768;2023-02-10T09:45:03;-1.9;99.9
49901;DHT22;35789;48.414;12.768;2023-02-10T09:50:04;-1.8;99.9
49901;DHT22;35789;48.414;12.768;2023-02-10T09:55:00;-1.7;99.9
49901;DHT22;35789;48.414;12.768;2023-02-10T10:00:00;-1.6;99.9
49901;DHT22;35789;48.414;12.768;2023-02-10T10:05:00;-1.4;99.9
49901;DHT22;35789;48.414;12.768;2023-02-10T10:10:01;-1.3;99.9
49901;DHT22;35789;48.414;12.768;2023-02-10T10:15:00;-1.2;99.9
49901;DHT22;35789;48.414;12.768;2023-02-10T10:20:06;-1.0;99.9
49901;DHT22;35789;48.414;12.768;2023-02-10T10:25:06;-0.9;99.9
49901;DHT22;35789;48.414;12.768;2023-02-10T10:30:02;-0.8;99.9
49901;DHT22;35789;48.414;12.768;2023-02-10T10:35:00;-0.7;99.9
49901;DHT22;35789;48.414;12.768;2023-02-10T10:40:03;-0.6;99.9
49901;DHT22;35789;48.414;12.768;2023-02-10T10:45:02;-0.5;99.9
49901;DHT22;35789;48.414;12.768;2023-02-10T10:50:00;-0.4;99.9
49901;DHT22;35789;48.414;12.768;2023-02-10T10:55:02;-0.2;99.9
49901;DHT22;35789;48.414;12.768;2023-02-10T11:00:03;0.1;99.9
49901;DHT22;35789;48.414;12.768;2023-02-10T11:05:01;0.3;99.9
49901;DHT22;35789;48.414;12.768;2023-02-10T11:10:00;0.5;99.9
49901;DHT22;35789;48.414;12.768;2023-02-10T11:15:01;0.4;99.9
49901;DHT22;35789;48.414;12.768;2023-02-10T11:20:03;0.5;99.9
49901;DHT22;35789;48.414;12.768;2023-02-10T11:25:01;0.6;99.9
49901;DHT22;35789;48.414;12.768;2023-02-10T11:30:00;0.9;99.9
49901;DHT22;35789;48.414;12.768;2023-02-10T11:35:01;0.8;99.9
49901;DHT22;35789;48.414;12.768;2023-02-10T11:40:01;0.8;99.9
49901;DHT22;35789;48.414;12.768;2023-02-10T11:45:01;0.9;99.9
49901;DHT22;35789;48.414;12.768;2023-02-10T11:50:00;1.0;99.9
49901;DHT22;35789;48.414;12.768;2023-02-10T11:55:00;1.1;99.9
49901;DHT22;35789;48.414;12.768;2023-02-10T12:00:03;1.2;99.9
49901;DHT22;35789;48.414;12.768;2023-02-10T12:05:02;1.3;99.9
49901;DHT22;35789;48.414;12.768;2023-02-10T12:10:02;1.4;99.9
49901;DHT22;35789;48.414;12.768;2023-02-10T12:15:03;1.3;99.9
49901;DHT22;35789;48.414;12.768;2023-02-10T12:20:05;1.5;99.9
49901;DHT22;35789;48.414;12.768;2023-02-10T12:25:03;1.5;99.9
49901;DHT22;35789;48.414;12.768;2023-02-10T12:30:02;1.4;99.9
49901;DHT22;35789;48.414;12.768;2023-02-10T12:35:04;1.4;99.6
49901;DHT22;35789;48.414;12.768;2023-02-10T12:40:06;1.4;99.9
49901;DHT22;35789;48.414;12.768;2023-02-10T12:45:02;1.5;99.9
49901;DHT22;35789;48.414;12.768;2023-02-10T12:50:04;1.6;99.6
49901;DHT22;35789;48.414;12.768;2023-02-10T12:55:01;1.8;99.5
49901;DHT22;35789;48.414;12.768;2023-02-10T13:00:02;1.7;99.9
49901;DHT22;35789;48.414;12.768;2023-02-10T13:05:02;1.7;99.9
49901;DHT22;35789;48.414;12.768;2023-02-10T13:10:02;1.8;99.9
49901;DHT22;35789;48.414;12.768;2023-02-10T13:15:02;1.9;99.9
49901;DHT22;35789;48.414;12.768;2023-02-10T13:20:01;1.9;99.9
49901;DHT22;35789;48.414;12.768;2023-02-10T13:25:01;1.8;99.9
49901;DHT22;35789;48.414;12.768;2023-02-10T13:30:04;2.0;99.8
49901;DHT22;35789;48.414;12.768;2023-02-10T13:35:00;2.1;99.9
49901;DHT22;35789;48.414;12.768;2023-02-10T13:40:02;2.1;99.7
49901;DHT22;35789;48.414;12.768;2023-02-10T13:45:00;1.9;99.9
49901;DHT22;35789;48.414;12.768;2023-02-10T13:50:01;2.0;99.9
49901;DHT22;35789;48.414;12.768;2023-02-10T13:55:03;2.0;99.9
49901;DHT22;35789;48.414;12.768;2023-02-10T14:05:00;2.1;99.9
49901;DHT22;35789;48.414;12.768;2023-02-10T14:10:02;2.1;99.9
49901;DHT22;35789;48.414;12.768;2023-02-10T14:20:00;2.2;99.3
49901;DHT22;35789;48.414;12.768;2023-02-10T14:25:03;2.1;99.2
49901;DHT22;35789;48.414;12.768;2023-02-10T14:30:02;2.1;99.4
49901;DHT22;35789;48.414;12.768;2023-02-10T14:35:01;2.1;99.6
49901;DHT22;35789;48.414;12.768;2023-02-10T14:40:01;2.0;99.8
49901;DHT22;35789;48.414;12.768;2023-02-10T14:45:00;2.0;99.6
49901;DHT22;35789;48.414;12.768;2023-02-10T14:50:00;1.8;99.8
49901;DHT22;35789;48.414;12.768;2023-02-10T14:55:00;1.9;99.9
49901;DHT22;35789;48.414;12.768;2023-02-10T15:00:00;1.8;99.9
49901;DHT22;35789;48.414;12.768;2023-02-10T15:05:01;1.7;99.9
49901;DHT22;35789;48.414;12.768;2023-02-10T15:10:01;1.7;99.9
49901;DHT22;35789;48.414;12.768;2023-02-10T15:15:01;1.7;99.7
49901;DHT22;35789;48.414;12.768;2023-02-10T15:20:01;1.5;99.9
49901;DHT22;35789;48.414;12.768;2023-02-10T15:30:05;1.2;99.9
49901;DHT22;35789;48.414;12.768;2023-02-10T15:35:04;1.1;99.9
49901;DHT22;35789;48.414;12.768;2023-02-10T15:40:00;1.0;99.9
49901;DHT22;35789;48.414;12.768;2023-02-10T15:45:03;0.9;99.9
49901;DHT22;35789;48.414;12.768;2023-02-10T15:50:00;0.8;99.9
49901;DHT22;35789;48.414;12.768;2023-02-10T15:55:00;0.7;99.9
49901;DHT22;35789;48.414;12.768;2023-02-10T16:00:02;0.6;99.9
49901;DHT22;35789;48.414;12.768;2023-02-10T16:05:00;0.5;99.9
49901;DHT22;35789;48.414;12.768;2023-02-10T16:10:00;0.4;99.9
49901;DHT22;35789;48.414;12.768;2023-02-10T16:15:00;0.3;99.9
49901;DHT22;35789;48.414;12.768;2023-02-10T16:20:00;0.2;99.9
49901;DHT22;35789;48.414;12.768;2023-02-10T16:25:00;0.1;99.9
49901;DHT22;35789;48.414;12.768;2023-02-10T16:30:00;-0.2;99.9
49901;DHT22;35789;48.414;12.768;2023-02-10T16:35:00;-0.3;99.9
49901;DHT22;35789;48.414;12.768;2023-02-10T16:40:00;-0.3;99.9
49901;DHT22;35789;48.414;12.768;2023-02-10T16:45:00;-0.5;99.9
49901;DHT22;35789;48.414;12.768;2023-02-10T16:50:00;-0.6;99.9
49901;DHT22;35789;48.414;12.768;2023-02-10T16:55:00;-0.7;99.9
49901;DHT22;35789;48.414;12.768;2023-02-10T17:00:00;-0.8;99.9
49901;DHT22;35789;48.414;12.768;2023-02-10T17:05:00;-0.9;99.9
49901;DHT22;35789;48.414;12.768;2023-02-10T17:10:00;-1.0;99.9
49901;DHT22;35789;48.414;12.768;2023-02-10T17:15:00;-1.0;99.9
49901;DHT22;35789;48.414;12.768;2023-02-10T17:20:00;-1.2;99.9
49901;DHT22;35789;48.414;12.768;2023-02-10T17:25:00;-1.3;99.9
49901;DHT22;35789;48.414;12.768;2023-02-10T17:30:00;-1.4;99.9
49901;DHT22;35789;48.414;12.768;2023-02-10T17:35:00;-1.5;99.9
49901;DHT22;35789;48.414;12.768;2023-02-10T17:40:00;-1.7;99.9
49901;DHT22;35789;48.414;12.768;2023-02-10T17:45:00;-1.7;99.9
49901;DHT22;35789;48.414;12.768;2023-02-10T17:50:00;-1.7;99.9
49901;DHT22;35789;48.414;12.768;2023-02-10T17:55:00;-1.7;99.9
49901;DHT22;35789;48.414;12.768;2023-02-10T18:00:00;-1.7;99.9
49901;DHT22;35789;48.414;12.768;2023-02-10T18:05:00;-1.7;99.9
49901;DHT22;35789;48.414;12.768;2023-02-10T18:10:00;-1.8;99.9
49901;DHT22;35789;48.414;12.768;2023-02-10T18:15:00;-1.8;99.9
49901;DHT22;35789;48.414;12.768;2023-02-10T18:20:00;-1.9;99.9
49901;DHT22;35789;48.414;12.768;2023-02-10T18:25:00;-1.9;99.9
49901;DHT22;35789;48.414;12.768;2023-02-10T18:30:00;-2.0;99.9
49901;DHT22;35789;48.414;12.768;2023-02-10T18:35:00;-2.1;99.9
49901;DHT22;35789;48.414;12.768;2023-02-10T18:40:00;-2.1;99.9
49901;DHT22;35789;48.414;12.768;2023-02-10T18:45:00;-2.1;99.9
49901;DHT22;35789;48.414;12.768;2023-02-10T18:50:00;-2.1;99.9
49901;DHT22;35789;48.414;12.768;2023-02-10T18:55:00;-2.1;99.9
49901;DHT22;35789;48.414;12.768;2023-02-10T19:00:00;-2.3;99.9
49901;DHT22;35789;48.414;12.768;2023-02-10T19:05:00;-2.3;99.9
49901;DHT22;35789;48.414;12.768;2023-02-10T19:10:00;-2.3;99.9
49901;DHT22;35789;48.414;12.768;2023-02-10T19:15:00;-2.4;99.9
49901;DHT22;35789;48.414;12.768;2023-02-10T19:20:00;-2.4;99.9
49901;DHT22;35789;48.414;12.768;2023-02-10T19:25:00;-2.4;99.9
49901;DHT22;35789;48.414;12.768;2023-02-10T19:30:00;-2.5;99.9
49901;DHT22;35789;48.414;12.768;2023-02-10T19:35:00;-2.5;99.9
49901;DHT22;35789;48.414;12.768;2023-02-10T19:40:00;-2.5;99.9
49901;DHT22;35789;48.414;12.768;2023-02-10T19:45:00;-2.5;99.9
49901;DHT22;35789;48.414;12.768;2023-02-10T19:50:00;-2.5;99.9
49901;DHT22;35789;48.414;12.768;2023-02-10T19:55:00;-2.5;99.9
49901;DHT22;35789;48.414;12.768;2023-02-10T20:00:00;-2.5;99.9
49901;DHT22;35789;48.414;12.768;2023-02-10T20:05:00;-2.6;99.9
49901;DHT22;35789;48.414;12.768;2023-02-10T20:10:00;-2.6;99.9
49901;DHT22;35789;48.414;12.768;2023-02-10T20:15:00;-2.6;99.9
49901;DHT22;35789;48.414;12.768;2023-02-10T20:20:00;-2.7;99.9
49901;DHT22;35789;48.414;12.768;2023-02-10T20:25:00;-2.8;99.9
49901;DHT22;35789;48.414;12.768;2023-02-10T20:30:00;-2.8;99.9
49901;DHT22;35789;48.414;12.768;2023-02-10T20:35:00;-2.8;99.9
49901;DHT22;35789;48.414;12.768;2023-02-10T20:40:00;-2.8;99.9
49901;DHT22;35789;48.414;12.768;2023-02-10T20:45:00;-2.8;99.9
49901;DHT22;35789;48.414;12.768;2023-02-10T20:50:00;-2.8;99.9
49901;DHT22;35789;48.414;12.768;2023-02-10T20:55:00;-2.8;99.9
49901;DHT22;35789;48.414;12.768;2023-02-10T21:00:00;-2.9;99.9
49901;DHT22;35789;48.414;12.768;2023-02-10T21:05:00;-2.9;99.9
49901;DHT22;35789;48.414;12.768;2023-02-10T21:10:00;-2.9;99.9
49901;DHT22;35789;48.414;12.768;2023-02-10T21:15:00;-2.9;99.9
49901;DHT22;35789;48.414;12.768;2023-02-10T21:20:00;-2.9;99.9
49901;DHT22;35789;48.414;12.768;2023-02-10T21:25:00;-2.8;99.9
49901;DHT22;35789;48.414;12.768;2023-02-10T21:30:00;-3.0;99.9
49901;DHT22;35789;48.414;12.768;2023-02-10T21:35:00;-3.0;99.9
49901;DHT22;35789;48.414;12.768;2023-02-10T21:40:00;-3.1;99.9
49901;DHT22;35789;48.414;12.768;2023-02-10T21:45:00;-3.0;99.9
49901;DHT22;35789;48.414;12.768;2023-02-10T21:50:00;-3.1;99.9
49901;DHT22;35789;48.414;12.768;2023-02-10T21:55:00;-3.1;99.9
49901;DHT22;35789;48.414;12.768;2023-02-10T22:00:00;-3.2;99.9
49901;DHT22;35789;48.414;12.768;2023-02-10T22:05:00;-3.2;99.9
49901;DHT22;35789;48.414;12.768;2023-02-10T22:10:00;-3.3;99.9
49901;DHT22;35789;48.414;12.768;2023-02-10T22:15:00;-3.3;99.9
49901;DHT22;35789;48.414;12.768;2023-02-10T22:20:00;-3.3;99.9
49901;DHT22;35789;48.414;12.768;2023-02-10T22:25:00;-3.3;99.9
49901;DHT22;35789;48.414;12.768;2023-02-10T22:30:00;-3.3;99.9
49901;DHT22;35789;48.414;12.768;2023-02-10T22:35:00;-3.3;99.9
49901;DHT22;35789;48.414;12.768;2023-02-10T22:40:00;-3.3;99.9
49901;DHT22;35789;48.414;12.768;2023-02-10T22:45:00;-3.4;99.9
49901;DHT22;35789;48.414;12.768;2023-02-10T22:50:00;-3.3;99.9
49901;DHT22;35789;48.414;12.768;2023-02-10T22:55:00;-3.5;99.9
49901;DHT22;35789;48.414;12.768;2023-02-10T23:00:00;-3.5;99.9
49901;DHT22;35789;48.414;12.768;2023-02-10T23:05:00;-3.5;99.9
49901;DHT22;35789;48.414;12.768;2023-02-10T23:10:00;-3.5;99.9
49901;DHT22;35789;48.414;12.768;2023-02-10T23:15:00;-3.6;99.9
49901;DHT22;35789;48.414;12.768;2023-02-10T23:20:00;-3.5;99.9
49901;DHT22;35789;48.414;12.768;2023-02-10T23:25:00;-3.6;99.9
49901;DHT22;35789;48.414;12.768;2023-02-10T23:30:00;-3.7;99.9
49901;DHT22;35789;48.414;12.768;2023-02-10T23:35:00;-3.8;99.9
49901;DHT22;35789;48.414;12.768;2023-02-10T23:40:00;-3.8;99.9
49901;DHT22;35789;48.414;12.768;2023-02-10T23:45:00;-3.8;99.9
49901;DHT22;35789;48.414;12.768;2023-02-10T23:50:00;-3.9;99.9
49901;DHT22;35789;48.414;12.768;2023-02-10T23:55:00;-3.8;99.9
